sensor_id;sensor_type;location;lat;lon;timestamp;P1;durP1;ratioP1;P2;durP2;ratioP2
287;SDS011;128;48.770;9.198;2024-03-02T00:01:34;25.90;;;13.13;;
287;SDS011;128;48.770;9.198;2024-03-02T00:04:02;26.37;;;13.87;;
287;SDS011;128;48.770;9.198;2024-03-02T00:06:28;22.00;;;11.83;;
287;SDS011;128;48.770;9.198;2024-03-02T00:08:56;30.60;;;12.07;;
287;SDS011;128;48.770;9.198;2024-03-02T00:11:23;22.97;;;11.90;;
287;SDS011;128;48.770;9.198;2024-03-02T00:13:49;24.40;;;11.67;;
287;SDS011;128;48.770;9.198;2024-03-02T00:16:18;22.83;;;11.60;;
287;SDS011;128;48.770;9.198;2024-03-02T00:18:44;24.57;;;11.90;;
287;SDS011;128;48.770;9.198;2024-03-02T00:21:10;24.40;;;12.97;;
287;SDS011;128;48.770;9.198;2024-03-02T00:23:38;20.80;;;11.13;;
287;SDS011;128;48.770;9.198;2024-03-02T00:26:04;22.00;;;11.77;;
287;SDS011;128;48.770;9.198;2024-03-02T00:28:35;19.43;;;11.00;;
287;SDS011;128;48.770;9.198;2024-03-02T00:31:10;22.60;;;12.87;;
287;SDS011;128;48.770;9.198;2024-03-02T00:33:39;22.10;;;10.93;;
287;SDS011;128;48.770;9.198;2024-03-02T00:36:06;20.97;;;10.80;;
287;SDS011;128;48.770;9.198;2024-03-02T00:38:33;23.57;;;12.40;;
287;SDS011;128;48.770;9.198;2024-03-02T00:41:00;23.13;;;12.60;;
287;SDS011;128;48.770;9.198;2024-03-02T00:46:08;21.60;;;11.17;;
287;SDS011;128;48.770;9.198;2024-03-02T00:48:34;27.37;;;11.70;;
287;SDS011;128;48.770;9.198;2024-03-02T00:51:01;21.97;;;11.07;;
287;SDS011;128;48.770;9.198;2024-03-02T00:53:30;20.07;;;12.43;;
287;SDS011;128;48.770;9.198;2024-03-02T00:56:00;19.90;;;10.00;;
287;SDS011;128;48.770;9.198;2024-03-02T00:58:26;23.10;;;10.60;;
287;SDS011;128;48.770;9.198;2024-03-02T01:00:52;23.23;;;11.80;;
287;SDS011;128;48.770;9.198;2024-03-02T01:03:18;22.90;;;11.27;;
287;SDS011;128;48.770;9.198;2024-03-02T01:05:44;19.63;;;11.17;;
287;SDS011;128;48.770;9.198;2024-03-02T01:08:11;26.30;;;11.83;;
287;SDS011;128;48.770;9.198;2024-03-02T01:10:37;17.97;;;9.80;;
287;SDS011;128;48.770;9.198;2024-03-02T01:13:03;23.10;;;11.07;;
287;SDS011;128;48.770;9.198;2024-03-02T01:15:28;12.23;;;7.60;;
287;SDS011;128;48.770;9.198;2024-03-02T01:17:55;21.60;;;10.93;;
287;SDS011;128;48.770;9.198;2024-03-02T01:20:20;17.37;;;10.53;;
287;SDS011;128;48.770;9.198;2024-03-02T01:22:47;25.77;;;11.07;;
287;SDS011;128;48.770;9.198;2024-03-02T01:25:13;22.03;;;9.73;;
287;SDS011;128;48.770;9.198;2024-03-02T01:27:39;27.80;;;12.30;;
287;SDS011;128;48.770;9.198;2024-03-02T01:30:05;30.03;;;11.33;;
287;SDS011;128;48.770;9.198;2024-03-02T01:32:31;23.90;;;11.90;;
287;SDS011;128;48.770;9.198;2024-03-02T01:34:57;21.50;;;12.23;;
287;SDS011;128;48.770;9.198;2024-03-02T01:37:23;19.97;;;10.60;;
287;SDS011;128;48.770;9.198;2024-03-02T01:39:49;27.93;;;13.23;;
287;SDS011;128;48.770;9.198;2024-03-02T01:42:15;28.07;;;10.83;;
287;SDS011;128;48.770;9.198;2024-03-02T01:44:41;24.00;;;11.43;;
287;SDS011;128;48.770;9.198;2024-03-02T01:47:07;21.20;;;11.30;;
287;SDS011;128;48.770;9.198;2024-03-02T01:49:33;18.07;;;9.67;;
287;SDS011;128;48.770;9.198;2024-03-02T01:51:59;19.80;;;12.23;;
287;SDS011;128;48.770;9.198;2024-03-02T01:54:25;24.90;;;12.30;;
287;SDS011;128;48.770;9.198;2024-03-02T01:56:51;24.90;;;12.10;;
287;SDS011;128;48.770;9.198;2024-03-02T01:59:17;19.70;;;11.03;;
287;SDS011;128;48.770;9.198;2024-03-02T02:01:43;24.83;;;11.60;;
287;SDS011;128;48.770;9.198;2024-03-02T02:04:09;20.20;;;11.00;;
287;SDS011;128;48.770;9.198;2024-03-02T02:06:35;20.63;;;10.47;;
287;SDS011;128;48.770;9.198;2024-03-02T02:09:01;19.83;;;11.47;;
287;SDS011;128;48.770;9.198;2024-03-02T02:11:27;21.03;;;10.70;;
287;SDS011;128;48.770;9.198;2024-03-02T02:13:53;21.30;;;10.17;;
287;SDS011;128;48.770;9.198;2024-03-02T02:16:20;21.23;;;10.37;;
287;SDS011;128;48.770;9.198;2024-03-02T02:18:46;21.40;;;9.87;;
287;SDS011;128;48.770;9.198;2024-03-02T02:21:12;20.53;;;10.10;;
287;SDS011;128;48.770;9.198;2024-03-02T02:23:38;18.40;;;11.07;;
287;SDS011;128;48.770;9.198;2024-03-02T02:26:04;19.67;;;10.37;;
287;SDS011;128;48.770;9.198;2024-03-02T02:28:30;16.77;;;9.60;;
287;SDS011;128;48.770;9.198;2024-03-02T02:30:56;22.97;;;10.17;;
287;SDS011;128;48.770;9.198;2024-03-02T02:33:25;24.00;;;11.50;;
287;SDS011;128;48.770;9.198;2024-03-02T02:35:51;23.43;;;12.37;;
287;SDS011;128;48.770;9.198;2024-03-02T02:38:17;19.17;;;10.60;;
287;SDS011;128;48.770;9.198;2024-03-02T02:40:44;25.30;;;12.17;;
287;SDS011;128;48.770;9.198;2024-03-02T02:43:10;19.53;;;10.90;;
287;SDS011;128;48.770;9.198;2024-03-02T02:45:36;21.77;;;11.57;;
287;SDS011;128;48.770;9.198;2024-03-02T02:48:02;24.43;;;12.53;;
287;SDS011;128;48.770;9.198;2024-03-02T02:50:29;26.07;;;11.40;;
287;SDS011;128;48.770;9.198;2024-03-02T02:52:54;27.70;;;13.10;;
287;SDS011;128;48.770;9.198;2024-03-02T02:55:20;24.40;;;12.30;;
287;SDS011;128;48.770;9.198;2024-03-02T02:57:46;23.17;;;12.20;;
287;SDS011;128;48.770;9.198;2024-03-02T03:00:13;24.40;;;12.57;;
287;SDS011;128;48.770;9.198;2024-03-02T03:02:43;25.10;;;11.80;;
287;SDS011;128;48.770;9.198;2024-03-02T03:05:10;23.43;;;11.70;;
287;SDS011;128;48.770;9.198;2024-03-02T03:07:37;25.50;;;11.37;;
287;SDS011;128;48.770;9.198;2024-03-02T03:10:04;25.60;;;12.90;;
287;SDS011;128;48.770;9.198;2024-03-02T03:12:31;24.97;;;12.60;;
287;SDS011;128;48.770;9.198;2024-03-02T03:14:57;25.53;;;12.70;;
287;SDS011;128;48.770;9.198;2024-03-02T03:17:23;25.70;;;12.00;;
287;SDS011;128;48.770;9.198;2024-03-02T03:19:49;27.47;;;13.43;;
287;SDS011;128;48.770;9.198;2024-03-02T03:22:15;29.30;;;12.53;;
287;SDS011;128;48.770;9.198;2024-03-02T03:24:41;26.60;;;12.67;;
287;SDS011;128;48.770;9.198;2024-03-02T03:27:07;27.70;;;13.80;;
287;SDS011;128;48.770;9.198;2024-03-02T03:29:34;29.80;;;14.00;;
287;SDS011;128;48.770;9.198;2024-03-02T03:32:01;22.03;;;12.20;;
287;SDS011;128;48.770;9.198;2024-03-02T03:34:28;31.43;;;13.80;;
287;SDS011;128;48.770;9.198;2024-03-02T03:36:54;23.03;;;12.30;;
287;SDS011;128;48.770;9.198;2024-03-02T03:39:20;27.93;;;13.80;;
287;SDS011;128;48.770;9.198;2024-03-02T03:41:46;26.60;;;13.13;;
287;SDS011;128;48.770;9.198;2024-03-02T03:44:12;30.37;;;14.30;;
287;SDS011;128;48.770;9.198;2024-03-02T03:46:38;28.00;;;14.20;;
287;SDS011;128;48.770;9.198;2024-03-02T03:49:04;25.13;;;13.03;;
287;SDS011;128;48.770;9.198;2024-03-02T03:51:30;32.27;;;15.67;;
287;SDS011;128;48.770;9.198;2024-03-02T03:53:56;28.33;;;14.40;;
287;SDS011;128;48.770;9.198;2024-03-02T03:56:22;27.33;;;14.30;;
287;SDS011;128;48.770;9.198;2024-03-02T03:58:48;31.97;;;15.10;;
287;SDS011;128;48.770;9.198;2024-03-02T04:01:13;28.17;;;13.73;;
287;SDS011;128;48.770;9.198;2024-03-02T04:03:39;29.13;;;13.03;;
287;SDS011;128;48.770;9.198;2024-03-02T04:06:05;28.00;;;13.87;;
287;SDS011;128;48.770;9.198;2024-03-02T04:08:31;36.70;;;14.60;;
287;SDS011;128;48.770;9.198;2024-03-02T04:10:57;27.47;;;14.77;;
287;SDS011;128;48.770;9.198;2024-03-02T04:13:23;29.73;;;15.37;;
287;SDS011;128;48.770;9.198;2024-03-02T04:15:49;30.20;;;14.50;;
287;SDS011;128;48.770;9.198;2024-03-02T04:18:15;29.33;;;13.97;;
287;SDS011;128;48.770;9.198;2024-03-02T04:20:41;28.40;;;12.90;;
287;SDS011;128;48.770;9.198;2024-03-02T04:23:07;26.50;;;13.70;;
287;SDS011;128;48.770;9.198;2024-03-02T04:25:33;29.53;;;13.90;;
287;SDS011;128;48.770;9.198;2024-03-02T04:27:59;32.97;;;16.00;;
287;SDS011;128;48.770;9.198;2024-03-02T04:30:25;31.37;;;14.53;;
287;SDS011;128;48.770;9.198;2024-03-02T04:32:51;33.63;;;16.20;;
287;SDS011;128;48.770;9.198;2024-03-02T04:35:17;30.80;;;14.83;;
287;SDS011;128;48.770;9.198;2024-03-02T04:37:43;36.97;;;14.63;;
287;SDS011;128;48.770;9.198;2024-03-02T04:40:09;30.80;;;15.00;;
287;SDS011;128;48.770;9.198;2024-03-02T04:42:35;32.23;;;14.00;;
287;SDS011;128;48.770;9.198;2024-03-02T04:45:01;34.40;;;17.10;;
287;SDS011;128;48.770;9.198;2024-03-02T04:47:28;37.23;;;15.13;;
287;SDS011;128;48.770;9.198;2024-03-02T04:49:54;32.30;;;14.97;;
287;SDS011;128;48.770;9.198;2024-03-02T04:52:19;31.17;;;14.00;;
287;SDS011;128;48.770;9.198;2024-03-02T04:54:45;27.57;;;14.20;;
287;SDS011;128;48.770;9.198;2024-03-02T04:57:30;32.33;;;16.27;;
287;SDS011;128;48.770;9.198;2024-03-02T04:59:56;34.40;;;15.60;;
287;SDS011;128;48.770;9.198;2024-03-02T05:02:22;30.33;;;13.87;;
287;SDS011;128;48.770;9.198;2024-03-02T05:04:48;37.10;;;14.20;;
287;SDS011;128;48.770;9.198;2024-03-02T05:07:14;33.70;;;15.40;;
287;SDS011;128;48.770;9.198;2024-03-02T05:09:40;32.30;;;15.33;;
287;SDS011;128;48.770;9.198;2024-03-02T05:12:07;33.57;;;13.60;;
287;SDS011;128;48.770;9.198;2024-03-02T05:15:06;30.77;;;14.93;;
287;SDS011;128;48.770;9.198;2024-03-02T05:17:35;29.93;;;14.97;;
287;SDS011;128;48.770;9.198;2024-03-02T05:20:01;34.90;;;16.60;;
287;SDS011;128;48.770;9.198;2024-03-02T05:22:27;32.57;;;14.20;;
287;SDS011;128;48.770;9.198;2024-03-02T05:24:53;34.13;;;16.20;;
287;SDS011;128;48.770;9.198;2024-03-02T05:27:19;33.03;;;14.27;;
287;SDS011;128;48.770;9.198;2024-03-02T05:29:45;33.30;;;15.73;;
287;SDS011;128;48.770;9.198;2024-03-02T05:32:12;32.57;;;16.87;;
287;SDS011;128;48.770;9.198;2024-03-02T05:34:38;32.97;;;13.43;;
287;SDS011;128;48.770;9.198;2024-03-02T05:37:04;30.50;;;14.50;;
287;SDS011;128;48.770;9.198;2024-03-02T05:39:29;29.00;;;13.87;;
287;SDS011;128;48.770;9.198;2024-03-02T05:41:55;38.10;;;15.60;;
287;SDS011;128;48.770;9.198;2024-03-02T05:44:21;34.50;;;15.43;;
287;SDS011;128;48.770;9.198;2024-03-02T05:46:47;39.10;;;16.30;;
287;SDS011;128;48.770;9.198;2024-03-02T05:49:13;32.70;;;15.57;;
287;SDS011;128;48.770;9.198;2024-03-02T05:51:39;31.97;;;14.30;;
287;SDS011;128;48.770;9.198;2024-03-02T05:54:06;36.37;;;16.97;;
287;SDS011;128;48.770;9.198;2024-03-02T05:56:32;34.00;;;14.50;;
287;SDS011;128;48.770;9.198;2024-03-02T05:58:58;34.47;;;15.77;;
287;SDS011;128;48.770;9.198;2024-03-02T06:01:44;28.70;;;14.10;;
287;SDS011;128;48.770;9.198;2024-03-02T06:04:12;32.40;;;14.73;;
287;SDS011;128;48.770;9.198;2024-03-02T06:06:38;40.33;;;15.37;;
287;SDS011;128;48.770;9.198;2024-03-02T06:09:04;31.20;;;14.00;;
287;SDS011;128;48.770;9.198;2024-03-02T06:11:32;34.10;;;15.93;;
287;SDS011;128;48.770;9.198;2024-03-02T06:13:58;30.80;;;15.70;;
287;SDS011;128;48.770;9.198;2024-03-02T06:16:24;35.67;;;16.03;;
287;SDS011;128;48.770;9.198;2024-03-02T06:18:50;31.10;;;15.20;;
287;SDS011;128;48.770;9.198;2024-03-02T06:21:18;32.13;;;14.53;;
287;SDS011;128;48.770;9.198;2024-03-02T06:23:44;29.17;;;13.63;;
287;SDS011;128;48.770;9.198;2024-03-02T06:26:10;35.90;;;15.77;;
287;SDS011;128;48.770;9.198;2024-03-02T06:28:37;33.53;;;15.43;;
287;SDS011;128;48.770;9.198;2024-03-02T06:31:03;29.60;;;12.33;;
287;SDS011;128;48.770;9.198;2024-03-02T06:33:29;39.00;;;17.10;;
287;SDS011;128;48.770;9.198;2024-03-02T06:35:55;40.20;;;18.70;;
287;SDS011;128;48.770;9.198;2024-03-02T06:38:21;40.83;;;19.23;;
287;SDS011;128;48.770;9.198;2024-03-02T06:40:47;37.13;;;16.67;;
287;SDS011;128;48.770;9.198;2024-03-02T06:43:13;30.27;;;14.90;;
287;SDS011;128;48.770;9.198;2024-03-02T06:45:39;33.30;;;15.70;;
287;SDS011;128;48.770;9.198;2024-03-02T06:48:05;31.23;;;14.37;;
287;SDS011;128;48.770;9.198;2024-03-02T06:50:31;30.70;;;16.17;;
287;SDS011;128;48.770;9.198;2024-03-02T06:52:57;31.90;;;15.40;;
287;SDS011;128;48.770;9.198;2024-03-02T06:55:22;31.23;;;14.00;;
287;SDS011;128;48.770;9.198;2024-03-02T06:57:51;27.70;;;13.90;;
287;SDS011;128;48.770;9.198;2024-03-02T07:00:18;25.80;;;12.87;;
287;SDS011;128;48.770;9.198;2024-03-02T07:02:45;24.70;;;11.70;;
287;SDS011;128;48.770;9.198;2024-03-02T07:05:11;32.10;;;14.70;;
287;SDS011;128;48.770;9.198;2024-03-02T07:07:37;29.87;;;13.87;;
287;SDS011;128;48.770;9.198;2024-03-02T07:10:06;26.57;;;13.03;;
287;SDS011;128;48.770;9.198;2024-03-02T07:12:32;26.17;;;13.50;;
287;SDS011;128;48.770;9.198;2024-03-02T07:14:58;30.03;;;12.93;;
287;SDS011;128;48.770;9.198;2024-03-02T07:17:27;31.13;;;13.23;;
287;SDS011;128;48.770;9.198;2024-03-02T07:19:53;26.47;;;12.30;;
287;SDS011;128;48.770;9.198;2024-03-02T07:22:19;27.43;;;13.07;;
287;SDS011;128;48.770;9.198;2024-03-02T07:24:45;26.93;;;12.07;;
287;SDS011;128;48.770;9.198;2024-03-02T07:27:11;22.47;;;11.73;;
287;SDS011;128;48.770;9.198;2024-03-02T07:29:38;20.67;;;11.60;;
287;SDS011;128;48.770;9.198;2024-03-02T07:32:04;23.73;;;12.67;;
287;SDS011;128;48.770;9.198;2024-03-02T07:34:30;20.60;;;10.80;;
287;SDS011;128;48.770;9.198;2024-03-02T07:36:56;26.70;;;13.20;;
287;SDS011;128;48.770;9.198;2024-03-02T07:39:22;24.67;;;13.03;;
287;SDS011;128;48.770;9.198;2024-03-02T07:41:49;30.80;;;13.37;;
287;SDS011;128;48.770;9.198;2024-03-02T07:44:15;18.83;;;11.10;;
287;SDS011;128;48.770;9.198;2024-03-02T07:46:41;20.77;;;9.80;;
287;SDS011;128;48.770;9.198;2024-03-02T07:49:07;21.70;;;10.37;;
287;SDS011;128;48.770;9.198;2024-03-02T07:51:33;21.30;;;11.10;;
287;SDS011;128;48.770;9.198;2024-03-02T07:53:59;20.27;;;10.80;;
287;SDS011;128;48.770;9.198;2024-03-02T07:56:25;29.77;;;13.80;;
287;SDS011;128;48.770;9.198;2024-03-02T07:58:51;30.77;;;14.60;;
287;SDS011;128;48.770;9.198;2024-03-02T08:01:17;29.03;;;15.40;;
287;SDS011;128;48.770;9.198;2024-03-02T08:03:43;30.67;;;14.60;;
287;SDS011;128;48.770;9.198;2024-03-02T08:06:14;26.97;;;14.30;;
287;SDS011;128;48.770;9.198;2024-03-02T08:08:40;26.70;;;14.00;;
287;SDS011;128;48.770;9.198;2024-03-02T08:11:06;31.23;;;15.00;;
287;SDS011;128;48.770;9.198;2024-03-02T08:13:32;28.60;;;14.47;;
287;SDS011;128;48.770;9.198;2024-03-02T08:15:58;30.23;;;14.83;;
287;SDS011;128;48.770;9.198;2024-03-02T08:18:24;25.60;;;13.40;;
287;SDS011;128;48.770;9.198;2024-03-02T08:20:50;31.97;;;14.37;;
287;SDS011;128;48.770;9.198;2024-03-02T08:23:16;26.20;;;14.30;;
287;SDS011;128;48.770;9.198;2024-03-02T08:25:42;29.20;;;14.10;;
287;SDS011;128;48.770;9.198;2024-03-02T08:28:09;28.33;;;14.73;;
287;SDS011;128;48.770;9.198;2024-03-02T08:30:35;26.17;;;14.47;;
287;SDS011;128;48.770;9.198;2024-03-02T08:33:01;23.57;;;12.70;;
287;SDS011;128;48.770;9.198;2024-03-02T08:35:27;27.13;;;10.90;;
287;SDS011;128;48.770;9.198;2024-03-02T08:37:53;20.03;;;9.73;;
287;SDS011;128;48.770;9.198;2024-03-02T08:40:19;20.40;;;9.80;;
287;SDS011;128;48.770;9.198;2024-03-02T08:42:45;20.57;;;9.90;;
287;SDS011;128;48.770;9.198;2024-03-02T08:45:11;21.30;;;9.17;;
287;SDS011;128;48.770;9.198;2024-03-02T08:47:37;18.43;;;9.87;;
287;SDS011;128;48.770;9.198;2024-03-02T08:50:04;16.40;;;8.53;;
287;SDS011;128;48.770;9.198;2024-03-02T08:52:31;12.30;;;7.47;;
287;SDS011;128;48.770;9.198;2024-03-02T08:54:57;13.27;;;7.53;;
287;SDS011;128;48.770;9.198;2024-03-02T08:57:23;11.70;;;7.10;;
287;SDS011;128;48.770;9.198;2024-03-02T08:59:49;11.87;;;6.13;;
287;SDS011;128;48.770;9.198;2024-03-02T09:02:15;17.30;;;7.07;;
287;SDS011;128;48.770;9.198;2024-03-02T09:04:41;16.13;;;7.73;;
287;SDS011;128;48.770;9.198;2024-03-02T09:07:07;14.07;;;6.53;;
287;SDS011;128;48.770;9.198;2024-03-02T09:09:33;12.60;;;6.20;;
287;SDS011;128;48.770;9.198;2024-03-02T09:11:59;15.40;;;7.70;;
287;SDS011;128;48.770;9.198;2024-03-02T09:14:25;10.40;;;5.80;;
287;SDS011;128;48.770;9.198;2024-03-02T09:16:50;12.37;;;6.90;;
287;SDS011;128;48.770;9.198;2024-03-02T09:19:16;16.57;;;6.90;;
287;SDS011;128;48.770;9.198;2024-03-02T09:21:44;11.97;;;6.40;;
287;SDS011;128;48.770;9.198;2024-03-02T09:24:10;11.93;;;6.17;;
287;SDS011;128;48.770;9.198;2024-03-02T09:26:37;15.30;;;6.67;;
287;SDS011;128;48.770;9.198;2024-03-02T09:29:03;11.90;;;6.03;;
287;SDS011;128;48.770;9.198;2024-03-02T09:31:29;16.63;;;6.00;;
287;SDS011;128;48.770;9.198;2024-03-02T09:33:55;14.20;;;6.27;;
287;SDS011;128;48.770;9.198;2024-03-02T09:36:22;11.70;;;6.40;;
287;SDS011;128;48.770;9.198;2024-03-02T09:38:48;17.80;;;6.47;;
287;SDS011;128;48.770;9.198;2024-03-02T09:41:14;12.67;;;6.70;;
287;SDS011;128;48.770;9.198;2024-03-02T09:43:40;11.10;;;6.70;;
287;SDS011;128;48.770;9.198;2024-03-02T09:46:09;21.63;;;7.37;;
287;SDS011;128;48.770;9.198;2024-03-02T09:48:35;15.37;;;6.20;;
287;SDS011;128;48.770;9.198;2024-03-02T09:51:01;9.43;;;5.00;;
287;SDS011;128;48.770;9.198;2024-03-02T09:53:31;13.13;;;5.93;;
287;SDS011;128;48.770;9.198;2024-03-02T09:55:58;8.07;;;5.03;;
287;SDS011;128;48.770;9.198;2024-03-02T09:58:24;12.07;;;6.20;;
287;SDS011;128;48.770;9.198;2024-03-02T10:00:50;10.20;;;5.70;;
287;SDS011;128;48.770;9.198;2024-03-02T10:03:17;10.40;;;4.53;;
287;SDS011;128;48.770;9.198;2024-03-02T10:05:44;9.20;;;5.10;;
287;SDS011;128;48.770;9.198;2024-03-02T10:08:10;13.07;;;6.10;;
287;SDS011;128;48.770;9.198;2024-03-02T10:10:36;10.40;;;4.80;;
287;SDS011;128;48.770;9.198;2024-03-02T10:13:05;7.63;;;4.50;;
287;SDS011;128;48.770;9.198;2024-03-02T10:15:31;13.40;;;6.40;;
287;SDS011;128;48.770;9.198;2024-03-02T10:17:57;8.40;;;4.90;;
287;SDS011;128;48.770;9.198;2024-03-02T10:20:23;11.13;;;5.70;;
287;SDS011;128;48.770;9.198;2024-03-02T10:22:50;8.23;;;4.90;;
287;SDS011;128;48.770;9.198;2024-03-02T10:25:28;8.97;;;5.63;;
287;SDS011;128;48.770;9.198;2024-03-02T10:27:57;8.60;;;4.50;;
287;SDS011;128;48.770;9.198;2024-03-02T10:30:23;8.97;;;4.80;;
287;SDS011;128;48.770;9.198;2024-03-02T10:32:49;11.30;;;4.60;;
287;SDS011;128;48.770;9.198;2024-03-02T10:35:16;8.30;;;4.83;;
287;SDS011;128;48.770;9.198;2024-03-02T10:37:42;7.20;;;4.20;;
287;SDS011;128;48.770;9.198;2024-03-02T10:40:10;7.37;;;4.17;;
287;SDS011;128;48.770;9.198;2024-03-02T10:42:37;9.43;;;4.80;;
287;SDS011;128;48.770;9.198;2024-03-02T10:45:05;9.20;;;5.50;;
287;SDS011;128;48.770;9.198;2024-03-02T10:47:31;7.80;;;4.20;;
287;SDS011;128;48.770;9.198;2024-03-02T10:49:58;6.50;;;4.10;;
287;SDS011;128;48.770;9.198;2024-03-02T10:52:24;9.73;;;4.80;;
287;SDS011;128;48.770;9.198;2024-03-02T10:54:50;10.10;;;5.13;;
287;SDS011;128;48.770;9.198;2024-03-02T10:57:16;7.13;;;4.63;;
287;SDS011;128;48.770;9.198;2024-03-02T10:59:56;11.80;;;5.13;;
287;SDS011;128;48.770;9.198;2024-03-02T11:02:22;4.50;;;3.40;;
287;SDS011;128;48.770;9.198;2024-03-02T11:04:50;9.60;;;4.60;;
287;SDS011;128;48.770;9.198;2024-03-02T11:07:19;6.67;;;4.40;;
287;SDS011;128;48.770;9.198;2024-03-02T11:09:54;7.67;;;4.20;;
287;SDS011;128;48.770;9.198;2024-03-02T11:12:29;6.50;;;3.70;;
287;SDS011;128;48.770;9.198;2024-03-02T11:14:57;6.77;;;3.73;;
287;SDS011;128;48.770;9.198;2024-03-02T11:17:24;7.20;;;3.47;;
287;SDS011;128;48.770;9.198;2024-03-02T11:19:51;9.90;;;3.67;;
287;SDS011;128;48.770;9.198;2024-03-02T11:22:17;4.00;;;2.67;;
287;SDS011;128;48.770;9.198;2024-03-02T11:24:50;5.57;;;3.50;;
287;SDS011;128;48.770;9.198;2024-03-02T11:27:58;7.47;;;2.90;;
287;SDS011;128;48.770;9.198;2024-03-02T11:30:02;5.53;;;2.60;;
287;SDS011;128;48.770;9.198;2024-03-02T11:32:28;3.50;;;1.80;;
287;SDS011;128;48.770;9.198;2024-03-02T11:34:54;6.03;;;1.80;;
287;SDS011;128;48.770;9.198;2024-03-02T11:37:21;3.67;;;1.67;;
287;SDS011;128;48.770;9.198;2024-03-02T11:39:48;4.60;;;2.23;;
287;SDS011;128;48.770;9.198;2024-03-02T11:42:15;3.20;;;1.87;;
287;SDS011;128;48.770;9.198;2024-03-02T11:44:42;5.97;;;2.20;;
287;SDS011;128;48.770;9.198;2024-03-02T11:47:10;3.20;;;1.70;;
287;SDS011;128;48.770;9.198;2024-03-02T11:49:39;6.60;;;2.10;;
287;SDS011;128;48.770;9.198;2024-03-02T11:52:06;2.30;;;1.57;;
287;SDS011;128;48.770;9.198;2024-03-02T11:54:33;1.87;;;1.10;;
287;SDS011;128;48.770;9.198;2024-03-02T11:57:01;4.40;;;1.37;;
287;SDS011;128;48.770;9.198;2024-03-02T11:59:27;3.50;;;1.80;;
287;SDS011;128;48.770;9.198;2024-03-02T12:01:54;5.63;;;1.70;;
287;SDS011;128;48.770;9.198;2024-03-02T12:04:21;3.03;;;1.60;;
287;SDS011;128;48.770;9.198;2024-03-02T12:06:48;7.23;;;1.50;;
287;SDS011;128;48.770;9.198;2024-03-02T12:09:15;2.13;;;1.60;;
287;SDS011;128;48.770;9.198;2024-03-02T12:11:41;2.37;;;1.20;;
287;SDS011;128;48.770;9.198;2024-03-02T12:14:11;3.30;;;1.40;;
287;SDS011;128;48.770;9.198;2024-03-02T12:16:43;2.83;;;1.30;;
287;SDS011;128;48.770;9.198;2024-03-02T12:19:09;1.43;;;1.00;;
287;SDS011;128;48.770;9.198;2024-03-02T12:21:35;2.60;;;1.40;;
287;SDS011;128;48.770;9.198;2024-03-02T12:24:02;1.60;;;0.97;;
287;SDS011;128;48.770;9.198;2024-03-02T12:26:28;2.03;;;1.27;;
287;SDS011;128;48.770;9.198;2024-03-02T12:28:55;1.93;;;0.87;;
287;SDS011;128;48.770;9.198;2024-03-02T12:31:21;2.93;;;0.70;;
287;SDS011;128;48.770;9.198;2024-03-02T12:33:47;2.47;;;1.10;;
287;SDS011;128;48.770;9.198;2024-03-02T12:36:13;1.23;;;0.80;;
287;SDS011;128;48.770;9.198;2024-03-02T12:38:45;1.40;;;0.70;;
287;SDS011;128;48.770;9.198;2024-03-02T12:41:14;1.67;;;1.07;;
287;SDS011;128;48.770;9.198;2024-03-02T12:43:40;2.53;;;0.93;;
287;SDS011;128;48.770;9.198;2024-03-02T12:46:06;1.90;;;1.10;;
287;SDS011;128;48.770;9.198;2024-03-02T12:48:32;2.50;;;1.60;;
287;SDS011;128;48.770;9.198;2024-03-02T12:50:58;1.73;;;1.07;;
287;SDS011;128;48.770;9.198;2024-03-02T12:53:24;1.90;;;0.93;;
287;SDS011;128;48.770;9.198;2024-03-02T12:55:50;2.70;;;1.17;;
287;SDS011;128;48.770;9.198;2024-03-02T12:58:20;2.00;;;1.30;;
287;SDS011;128;48.770;9.198;2024-03-02T13:00:46;3.30;;;1.20;;
287;SDS011;128;48.770;9.198;2024-03-02T13:03:12;2.10;;;1.23;;
287;SDS011;128;48.770;9.198;2024-03-02T13:05:38;1.63;;;1.07;;
287;SDS011;128;48.770;9.198;2024-03-02T13:08:05;2.03;;;0.90;;
287;SDS011;128;48.770;9.198;2024-03-02T13:10:32;1.53;;;1.10;;
287;SDS011;128;48.770;9.198;2024-03-02T13:12:58;2.30;;;1.00;;
287;SDS011;128;48.770;9.198;2024-03-02T13:15:27;1.60;;;0.90;;
287;SDS011;128;48.770;9.198;2024-03-02T13:17:53;3.47;;;1.03;;
287;SDS011;128;48.770;9.198;2024-03-02T13:20:19;2.43;;;1.00;;
287;SDS011;128;48.770;9.198;2024-03-02T13:22:45;2.13;;;1.00;;
287;SDS011;128;48.770;9.198;2024-03-02T13:25:11;1.80;;;1.30;;
287;SDS011;128;48.770;9.198;2024-03-02T13:27:37;2.80;;;1.37;;
287;SDS011;128;48.770;9.198;2024-03-02T13:30:03;2.33;;;1.30;;
287;SDS011;128;48.770;9.198;2024-03-02T13:32:33;1.77;;;1.00;;
287;SDS011;128;48.770;9.198;2024-03-02T13:34:59;2.87;;;1.70;;
287;SDS011;128;48.770;9.198;2024-03-02T13:37:25;1.70;;;1.30;;
287;SDS011;128;48.770;9.198;2024-03-02T13:39:51;1.67;;;1.10;;
287;SDS011;128;48.770;9.198;2024-03-02T13:42:17;3.07;;;1.30;;
287;SDS011;128;48.770;9.198;2024-03-02T13:44:43;3.47;;;1.47;;
287;SDS011;128;48.770;9.198;2024-03-02T13:47:12;1.90;;;1.20;;
287;SDS011;128;48.770;9.198;2024-03-02T13:49:38;4.23;;;1.87;;
287;SDS011;128;48.770;9.198;2024-03-02T13:52:08;1.93;;;1.10;;
287;SDS011;128;48.770;9.198;2024-03-02T13:54:42;14.70;;;1.60;;
287;SDS011;128;48.770;9.198;2024-03-02T13:57:09;2.10;;;1.17;;
287;SDS011;128;48.770;9.198;2024-03-02T13:59:35;4.67;;;2.37;;
287;SDS011;128;48.770;9.198;2024-03-02T14:02:01;4.90;;;1.90;;
287;SDS011;128;48.770;9.198;2024-03-02T14:04:32;2.50;;;1.27;;
287;SDS011;128;48.770;9.198;2024-03-02T14:06:58;2.43;;;1.30;;
287;SDS011;128;48.770;9.198;2024-03-02T14:09:24;1.80;;;1.30;;
287;SDS011;128;48.770;9.198;2024-03-02T14:11:50;3.50;;;1.27;;
287;SDS011;128;48.770;9.198;2024-03-02T14:14:16;4.83;;;1.90;;
287;SDS011;128;48.770;9.198;2024-03-02T14:16:43;4.43;;;1.47;;
287;SDS011;128;48.770;9.198;2024-03-02T14:19:10;3.03;;;1.57;;
287;SDS011;128;48.770;9.198;2024-03-02T14:21:36;2.63;;;1.30;;
287;SDS011;128;48.770;9.198;2024-03-02T14:24:02;1.97;;;1.20;;
287;SDS011;128;48.770;9.198;2024-03-02T14:26:28;2.20;;;1.30;;
287;SDS011;128;48.770;9.198;2024-03-02T14:28:54;5.13;;;1.47;;
287;SDS011;128;48.770;9.198;2024-03-02T14:31:20;1.70;;;1.20;;
287;SDS011;128;48.770;9.198;2024-03-02T14:33:46;1.77;;;1.00;;
287;SDS011;128;48.770;9.198;2024-03-02T14:36:12;2.40;;;1.50;;
287;SDS011;128;48.770;9.198;2024-03-02T14:38:38;2.60;;;1.33;;
287;SDS011;128;48.770;9.198;2024-03-02T14:41:04;1.70;;;1.00;;
287;SDS011;128;48.770;9.198;2024-03-02T14:43:30;2.60;;;1.27;;
287;SDS011;128;48.770;9.198;2024-03-02T14:45:56;2.70;;;1.23;;
287;SDS011;128;48.770;9.198;2024-03-02T14:48:24;2.03;;;1.13;;
287;SDS011;128;48.770;9.198;2024-03-02T14:50:50;1.80;;;1.13;;
287;SDS011;128;48.770;9.198;2024-03-02T14:53:16;2.40;;;1.10;;
287;SDS011;128;48.770;9.198;2024-03-02T14:55:42;2.90;;;1.40;;
287;SDS011;128;48.770;9.198;2024-03-02T14:58:09;2.20;;;1.20;;
287;SDS011;128;48.770;9.198;2024-03-02T15:00:34;2.20;;;1.23;;
287;SDS011;128;48.770;9.198;2024-03-02T15:03:00;4.30;;;1.10;;
287;SDS011;128;48.770;9.198;2024-03-02T15:05:28;1.93;;;1.27;;
287;SDS011;128;48.770;9.198;2024-03-02T15:07:54;4.40;;;1.30;;
287;SDS011;128;48.770;9.198;2024-03-02T15:10:23;4.47;;;1.20;;
287;SDS011;128;48.770;9.198;2024-03-02T15:12:49;1.10;;;0.73;;
287;SDS011;128;48.770;9.198;2024-03-02T15:15:15;1.47;;;0.90;;
287;SDS011;128;48.770;9.198;2024-03-02T15:17:41;3.00;;;0.93;;
287;SDS011;128;48.770;9.198;2024-03-02T15:20:07;3.77;;;1.07;;
287;SDS011;128;48.770;9.198;2024-03-02T15:22:33;2.07;;;1.20;;
287;SDS011;128;48.770;9.198;2024-03-02T15:24:59;3.27;;;1.00;;
287;SDS011;128;48.770;9.198;2024-03-02T15:27:25;2.97;;;1.40;;